createdAt,value
2023-03-16T00:01:06.139Z,-2.79
2023-03-16T00:03:52.137Z,-2.82
2023-03-16T00:06:37.977Z,-2.82
2023-03-16T00:09:30.763Z,-2.86
2023-03-16T00:12:18.889Z,-2.88
2023-03-16T00:15:05.001Z,-2.89
2023-03-16T00:17:51.274Z,-2.94
2023-03-16T00:20:37.356Z,-2.96
2023-03-16T00:23:27.066Z,-2.99
2023-03-16T00:26:13.284Z,-3.03
2023-03-16T00:29:01.711Z,-3.06
2023-03-16T00:31:47.877Z,-3.09
2023-03-16T00:34:34.643Z,-3.13
2023-03-16T00:37:23.204Z,-3.12
2023-03-16T00:40:11.496Z,-3.14
2023-03-16T00:42:57.330Z,-3.19
2023-03-16T00:45:45.201Z,-3.22
2023-03-16T00:48:34.398Z,-3.17
2023-03-16T00:51:20.538Z,-3.18
2023-03-16T00:54:06.627Z,-3.20
2023-03-16T00:56:52.555Z,-3.18
2023-03-16T00:59:38.994Z,-3.18
2023-03-16T01:02:26.393Z,-3.18
2023-03-16T01:05:13.516Z,-3.20
2023-03-16T01:07:59.858Z,-3.18
2023-03-16T01:10:46.223Z,-3.20
2023-03-16T01:13:32.449Z,-3.17
2023-03-16T01:16:19.279Z,-3.16
2023-03-16T01:19:09.866Z,-3.16
2023-03-16T01:21:56.053Z,-3.18
2023-03-16T01:24:42.546Z,-3.21
2023-03-16T01:27:28.584Z,-3.20
2023-03-16T01:30:14.919Z,-3.22
2023-03-16T01:33:01.496Z,-3.21
2023-03-16T01:35:54.958Z,-3.21
2023-03-16T01:38:41.839Z,-3.22
2023-03-16T01:41:27.988Z,-3.22
2023-03-16T01:44:14.724Z,-3.26
2023-03-16T01:47:00.630Z,-3.29
2023-03-16T01:49:48.256Z,-3.30
2023-03-16T01:52:36.792Z,-3.32
2023-03-16T01:55:22.819Z,-3.31
2023-03-16T01:58:09.051Z,-3.35
2023-03-16T02:00:57.668Z,-3.37
2023-03-16T02:03:43.682Z,-3.35
2023-03-16T02:06:38.504Z,-3.39
2023-03-16T02:09:25.730Z,-3.41
2023-03-16T02:12:18.338Z,-3.45
2023-03-16T02:15:08.903Z,-3.48
2023-03-16T02:17:55.049Z,-3.38
2023-03-16T02:20:43.165Z,-3.45
2023-03-16T02:23:29.250Z,-3.30
2023-03-16T02:26:18.517Z,-3.21
2023-03-16T02:29:11.601Z,-3.08
2023-03-16T02:31:59.863Z,-3.06
2023-03-16T02:34:45.828Z,-3.08
2023-03-16T02:37:34.213Z,-3.08
2023-03-16T02:40:22.206Z,-3.00
2023-03-16T02:43:11.090Z,-2.95
2023-03-16T02:46:03.889Z,-2.89
2023-03-16T02:48:52.058Z,-2.77
2023-03-16T02:51:39.149Z,-2.69
2023-03-16T02:54:25.230Z,-2.69
2023-03-16T02:57:11.706Z,-2.75
2023-03-16T02:59:58.097Z,-2.79
2023-03-16T03:02:44.448Z,-2.80
2023-03-16T03:05:33.262Z,-2.84
2023-03-16T03:08:20.374Z,-2.85
2023-03-16T03:11:06.727Z,-2.92
2023-03-16T03:13:53.128Z,-2.96
2023-03-16T03:16:41.881Z,-2.95
2023-03-16T03:19:29.286Z,-3.01
2023-03-16T03:22:18.533Z,-3.01
2023-03-16T03:25:04.370Z,-3.03
2023-03-16T03:27:51.305Z,-3.06
2023-03-16T03:30:41.763Z,-3.10
2023-03-16T03:33:28.347Z,-3.11
2023-03-16T03:36:14.630Z,-3.14
2023-03-16T03:39:05.097Z,-3.16
2023-03-16T03:41:54.469Z,-3.21
2023-03-16T03:44:41.447Z,-3.25
2023-03-16T03:47:27.780Z,-3.25
2023-03-16T03:50:14.646Z,-3.27
2023-03-16T03:53:31.838Z,-3.33
2023-03-16T03:56:33.183Z,-3.37
2023-03-16T03:59:19.178Z,-3.39
2023-03-16T04:02:25.749Z,-3.45
2023-03-16T04:05:13.865Z,-3.45
2023-03-16T04:07:59.903Z,-3.46
2023-03-16T04:10:46.224Z,-3.51
2023-03-16T04:13:33.920Z,-3.55
2023-03-16T04:16:19.892Z,-3.57
2023-03-16T04:19:09.700Z,-3.59
2023-03-16T04:21:55.520Z,-3.59
2023-03-16T04:24:43.201Z,-3.61
2023-03-16T04:27:30.176Z,-3.62
2023-03-16T04:30:18.393Z,-3.65
2023-03-16T04:33:09.194Z,-3.66
2023-03-16T04:35:55.694Z,-3.68
2023-03-16T04:38:43.051Z,-3.72
2023-03-16T04:41:30.393Z,-3.75
2023-03-16T04:44:21.738Z,-3.80
2023-03-16T04:47:10.696Z,-3.81
2023-03-16T04:50:00.250Z,-3.83
2023-03-16T04:52:46.764Z,-3.88
2023-03-16T04:55:33.066Z,-3.90
2023-03-16T04:58:19.979Z,-3.91
2023-03-16T05:01:09.066Z,-3.90
2023-03-16T05:03:58.614Z,-3.89
2023-03-16T05:06:46.071Z,-3.93
2023-03-16T05:09:32.916Z,-3.97
2023-03-16T05:12:18.960Z,-3.97
2023-03-16T05:15:07.091Z,-3.97
2023-03-16T05:17:57.118Z,-3.94
2023-03-16T05:20:45.460Z,-3.92
2023-03-16T05:23:31.483Z,-3.89
2023-03-16T05:26:21.062Z,-3.88
2023-03-16T05:29:07.244Z,-3.86
2023-03-16T05:31:54.093Z,-3.86
2023-03-16T05:34:43.332Z,-3.81
2023-03-16T05:37:31.178Z,-3.77
2023-03-16T05:40:17.996Z,-3.72
2023-03-16T05:43:10.472Z,-3.62
2023-03-16T05:46:02.592Z,-3.58
2023-03-16T05:48:49.272Z,-3.53
2023-03-16T05:51:37.747Z,-3.46
2023-03-16T05:54:26.559Z,-3.31
2023-03-16T05:57:12.852Z,-3.18
2023-03-16T06:00:01.792Z,-2.94
2023-03-16T06:02:58.323Z,-2.71
2023-03-16T06:05:49.111Z,-2.52
2023-03-16T06:08:39.709Z,-2.35
2023-03-16T06:11:32.835Z,-2.17
2023-03-16T06:14:19.419Z,-1.93
2023-03-16T06:17:05.729Z,-1.68
2023-03-16T06:19:52.521Z,-1.43
2023-03-16T06:22:39.299Z,-1.28
2023-03-16T06:25:25.289Z,-1.17
2023-03-16T06:28:12.882Z,-1.10
2023-03-16T06:30:59.663Z,-1.05
2023-03-16T06:33:50.382Z,-0.98
2023-03-16T06:36:38.817Z,-0.92
2023-03-16T06:39:27.984Z,-0.83
2023-03-16T06:42:14.205Z,-0.77
2023-03-16T06:45:01.676Z,-0.71
2023-03-16T06:47:47.907Z,-0.65
2023-03-16T06:50:34.218Z,-0.59
2023-03-16T06:53:22.046Z,-0.51
2023-03-16T06:56:08.630Z,-0.42
2023-03-16T06:58:59.089Z,-0.31
2023-03-16T07:01:46.981Z,-0.22
2023-03-16T07:04:34.002Z,-0.13
2023-03-16T07:07:20.174Z,-0.04
2023-03-16T07:10:06.707Z,0.08
2023-03-16T07:12:53.149Z,0.17
2023-03-16T07:15:39.231Z,0.26
2023-03-16T07:18:27.747Z,0.34
2023-03-16T07:21:14.232Z,0.42
2023-03-16T07:24:00.194Z,0.51
2023-03-16T07:26:49.653Z,0.61
2023-03-16T07:29:44.748Z,0.75
2023-03-16T07:32:32.411Z,0.88
2023-03-16T07:35:21.658Z,1.05
2023-03-16T07:38:09.907Z,1.21
2023-03-16T07:40:55.948Z,1.34
2023-03-16T07:43:42.317Z,1.45
2023-03-16T07:46:29.279Z,1.55
2023-03-16T07:49:16.615Z,1.66
2023-03-16T07:52:04.886Z,1.76
2023-03-16T07:54:57.186Z,1.90
2023-03-16T07:57:47.762Z,1.98
2023-03-16T08:00:35.851Z,2.11
2023-03-16T08:03:22.648Z,2.19
2023-03-16T08:06:08.803Z,2.31
2023-03-16T08:08:57.183Z,2.40
2023-03-16T08:11:50.911Z,2.52
2023-03-16T08:14:37.316Z,2.59
2023-03-16T08:17:31.055Z,2.73
2023-03-16T08:20:19.381Z,2.87
2023-03-16T08:23:06.748Z,2.95
2023-03-16T08:26:01.056Z,3.12
2023-03-16T08:28:47.774Z,3.25
2023-03-16T08:31:34.998Z,3.45
2023-03-16T08:34:33.646Z,3.50
2023-03-16T08:37:20.014Z,3.64
2023-03-16T08:40:10.607Z,3.79
2023-03-16T08:42:59.450Z,3.89
2023-03-16T08:45:45.523Z,4.02
2023-03-16T08:48:33.290Z,4.13
2023-03-16T08:51:19.530Z,4.31
2023-03-16T08:54:05.342Z,4.50
2023-03-16T08:56:52.635Z,4.80
2023-03-16T08:59:40.467Z,5.05
2023-03-16T09:02:26.674Z,5.11
2023-03-16T09:05:13.567Z,5.23
2023-03-16T09:08:00.140Z,5.30
2023-03-16T09:10:46.761Z,5.36
2023-03-16T09:13:33.121Z,5.49
2023-03-16T09:16:21.060Z,5.62
2023-03-16T09:19:07.987Z,5.76
2023-03-16T09:21:54.668Z,5.94
2023-03-16T09:24:40.570Z,6.23
2023-03-16T09:27:26.655Z,6.43
2023-03-16T09:30:13.124Z,6.61
2023-03-16T09:33:00.954Z,6.76
2023-03-16T09:35:47.046Z,6.96
2023-03-16T09:38:33.683Z,7.16
2023-03-16T09:41:27.648Z,7.42
2023-03-16T09:44:19.798Z,7.41
2023-03-16T09:47:06.068Z,7.65
2023-03-16T09:49:53.513Z,7.98
2023-03-16T09:52:41.291Z,7.92
2023-03-16T09:55:28.296Z,8.33
2023-03-16T09:58:15.568Z,8.58
2023-03-16T10:01:04.932Z,8.85
2023-03-16T10:04:09.730Z,9.01
2023-03-16T10:07:02.795Z,9.39
2023-03-16T10:09:48.941Z,9.49
2023-03-16T10:12:36.547Z,9.71
2023-03-16T10:15:23.713Z,9.75
2023-03-16T10:18:13.405Z,9.60
2023-03-16T10:20:59.961Z,9.86
2023-03-16T10:23:48.514Z,9.96
2023-03-16T10:26:35.070Z,10.09
2023-03-16T10:29:20.856Z,10.04
2023-03-16T10:32:12.193Z,9.85
2023-03-16T10:35:00.109Z,10.03
2023-03-16T10:37:46.848Z,9.68
2023-03-16T10:40:34.023Z,10.01
2023-03-16T10:43:19.955Z,10.20
2023-03-16T10:46:05.728Z,10.08
2023-03-16T10:48:52.915Z,10.38
2023-03-16T10:51:38.794Z,10.34
2023-03-16T10:54:26.188Z,10.37
2023-03-16T10:57:20.862Z,10.73
2023-03-16T11:00:20.547Z,10.70
2023-03-16T11:03:14.593Z,10.73
2023-03-16T11:06:02.122Z,10.37
2023-03-16T11:08:48.621Z,10.34
2023-03-16T11:11:34.797Z,10.60
2023-03-16T11:14:23.268Z,10.25
2023-03-16T11:17:12.192Z,10.71
2023-03-16T11:19:59.201Z,10.77
2023-03-16T11:22:47.104Z,10.77
2023-03-16T11:25:33.797Z,11.02
2023-03-16T11:28:21.020Z,10.89
2023-03-16T11:31:14.903Z,10.75
2023-03-16T11:34:02.734Z,10.88
2023-03-16T11:36:50.363Z,10.79
2023-03-16T11:39:40.397Z,10.53
2023-03-16T11:42:30.720Z,10.90
2023-03-16T11:45:18.877Z,10.85
2023-03-16T11:48:11.089Z,11.20
2023-03-16T11:51:03.690Z,11.66
2023-03-16T11:53:53.749Z,12.21
2023-03-16T11:56:40.450Z,12.13
2023-03-16T11:59:30.911Z,12.53
2023-03-16T12:02:41.008Z,12.15
2023-03-16T12:05:49.563Z,12.34
2023-03-16T12:08:39.797Z,12.33
2023-03-16T12:11:26.405Z,12.33
2023-03-16T12:14:16.513Z,12.49
2023-03-16T12:17:03.847Z,12.61
2023-03-16T12:19:50.704Z,12.43
2023-03-16T12:22:38.692Z,12.40
2023-03-16T12:25:25.773Z,12.46
2023-03-16T12:28:18.196Z,11.95
2023-03-16T12:31:12.406Z,11.48
2023-03-16T12:34:03.921Z,11.89
2023-03-16T12:36:59.013Z,11.54
2023-03-16T12:40:08.953Z,11.56
2023-03-16T12:43:01.308Z,11.57
2023-03-16T12:45:49.693Z,11.04
2023-03-16T12:48:38.761Z,10.82
2023-03-16T12:51:33.052Z,10.42
2023-03-16T12:54:20.215Z,10.44
2023-03-16T12:57:07.180Z,10.34
2023-03-16T12:59:57.135Z,10.15
2023-03-16T13:02:44.158Z,10.36
2023-03-16T13:05:32.270Z,10.22
2023-03-16T13:08:18.968Z,10.18
2023-03-16T13:11:06.001Z,10.01
2023-03-16T13:13:52.595Z,9.77
2023-03-16T13:16:40.382Z,9.70
2023-03-16T13:19:27.356Z,9.92
2023-03-16T13:22:22.011Z,9.92
2023-03-16T13:25:13.985Z,10.09
2023-03-16T13:27:59.954Z,10.14
2023-03-16T13:30:47.109Z,10.38
2023-03-16T13:33:36.668Z,9.94
2023-03-16T13:36:22.795Z,10.07
2023-03-16T13:39:14.461Z,9.94
2023-03-16T13:42:01.100Z,10.05
2023-03-16T13:44:48.132Z,9.96
2023-03-16T13:47:33.957Z,9.78
2023-03-16T13:50:21.736Z,9.74
2023-03-16T13:53:11.887Z,9.72
2023-03-16T13:55:58.208Z,9.66
2023-03-16T13:58:44.966Z,9.52
2023-03-16T14:01:32.152Z,9.62
2023-03-16T14:04:23.847Z,9.64
2023-03-16T14:07:17.524Z,9.53
2023-03-16T14:10:05.208Z,9.41
2023-03-16T14:12:51.742Z,9.45
2023-03-16T14:15:38.053Z,9.45
2023-03-16T14:18:25.546Z,9.49
2023-03-16T14:21:13.653Z,9.36
2023-03-16T14:24:02.164Z,9.33
2023-03-16T14:26:49.185Z,9.40
2023-03-16T14:29:35.678Z,9.29
2023-03-16T14:32:23.375Z,9.17
2023-03-16T14:35:14.091Z,9.21
2023-03-16T14:38:14.857Z,9.15
2023-03-16T14:41:05.076Z,9.13
2023-03-16T14:43:53.165Z,9.07
2023-03-16T14:46:40.479Z,9.14
2023-03-16T14:49:27.900Z,9.09
2023-03-16T14:52:16.245Z,9.13
2023-03-16T14:55:03.597Z,9.11
2023-03-16T14:57:53.128Z,8.98
2023-03-16T15:00:52.009Z,8.92
2023-03-16T15:03:39.255Z,8.99
2023-03-16T15:06:25.358Z,8.80
2023-03-16T15:09:27.905Z,8.73
2023-03-16T15:12:14.492Z,8.71
2023-03-16T15:15:18.039Z,8.71
2023-03-16T15:18:04.207Z,8.69
2023-03-16T15:20:53.632Z,8.60
2023-03-16T15:23:39.552Z,8.61
2023-03-16T15:26:27.225Z,8.53
2023-03-16T15:29:13.372Z,8.53
2023-03-16T15:32:00.873Z,8.42
2023-03-16T15:34:46.927Z,8.38
2023-03-16T15:37:33.086Z,8.43
2023-03-16T15:40:20.072Z,8.45
2023-03-16T15:43:07.262Z,8.46
2023-03-16T15:45:54.350Z,8.29
2023-03-16T15:48:41.762Z,8.27
2023-03-16T15:51:28.274Z,8.31
2023-03-16T15:54:14.346Z,8.23
2023-03-16T15:57:00.634Z,8.21
2023-03-16T15:59:47.529Z,8.14
2023-03-16T16:02:33.820Z,8.14
2023-03-16T16:05:23.080Z,8.19
2023-03-16T16:08:10.313Z,8.09
2023-03-16T16:10:56.424Z,8.11
2023-03-16T16:13:45.009Z,8.09
2023-03-16T16:16:31.822Z,8.04
2023-03-16T16:19:18.730Z,8.05
2023-03-16T16:22:06.708Z,8.03
2023-03-16T16:24:52.538Z,8.03
2023-03-16T16:27:38.621Z,7.94
2023-03-16T16:30:25.936Z,7.92
2023-03-16T16:33:22.025Z,7.83
2023-03-16T16:36:08.695Z,7.84
2023-03-16T16:38:57.146Z,7.81
2023-03-16T16:41:43.156Z,7.76
2023-03-16T16:44:32.903Z,7.76
2023-03-16T16:47:20.949Z,7.72
2023-03-16T16:50:13.723Z,7.72
2023-03-16T16:53:00.411Z,7.67
2023-03-16T16:55:48.501Z,7.64
2023-03-16T16:58:34.569Z,7.63
2023-03-16T17:01:21.970Z,7.64
2023-03-16T17:04:12.225Z,7.52
2023-03-16T17:07:00.654Z,7.54
2023-03-16T17:09:46.580Z,7.50
2023-03-16T17:12:35.526Z,7.43
2023-03-16T17:15:22.913Z,7.45
2023-03-16T17:18:13.110Z,7.39
2023-03-16T17:20:58.961Z,7.33
2023-03-16T17:23:44.979Z,7.36
2023-03-16T17:26:31.499Z,7.32
2023-03-16T17:29:20.991Z,7.25
2023-03-16T17:32:11.396Z,7.24
2023-03-16T17:34:57.233Z,7.19
2023-03-16T17:37:43.190Z,7.18
2023-03-16T17:40:29.983Z,7.13
2023-03-16T17:43:16.951Z,7.08
2023-03-16T17:46:04.364Z,7.06
2023-03-16T17:48:52.718Z,7.00
2023-03-16T17:51:40.403Z,7.00
2023-03-16T17:54:26.974Z,6.97
2023-03-16T17:57:14.688Z,6.98
2023-03-16T18:00:00.968Z,6.96
2023-03-16T18:02:51.363Z,6.89
2023-03-16T18:05:37.308Z,6.94
2023-03-16T18:08:25.053Z,6.91
2023-03-16T18:11:13.223Z,6.91
2023-03-16T18:13:59.084Z,6.91
2023-03-16T18:16:45.761Z,6.91
2023-03-16T18:19:33.130Z,6.89
2023-03-16T18:22:20.022Z,6.90
2023-03-16T18:25:07.811Z,6.84
2023-03-16T18:27:53.887Z,6.81
2023-03-16T18:30:39.942Z,6.81
2023-03-16T18:33:27.484Z,6.78
2023-03-16T18:36:17.611Z,6.78
2023-03-16T18:39:05.656Z,6.76
2023-03-16T18:41:52.573Z,6.70
2023-03-16T18:44:39.319Z,6.71
2023-03-16T18:47:31.337Z,6.66
2023-03-16T18:50:19.035Z,6.70
2023-03-16T18:53:08.177Z,6.69
2023-03-16T18:55:56.882Z,6.68
2023-03-16T18:58:43.175Z,6.68
2023-03-16T19:01:30.048Z,6.63
2023-03-16T19:04:19.756Z,6.60
2023-03-16T19:07:05.498Z,6.54
2023-03-16T19:09:53.415Z,6.55
2023-03-16T19:12:39.617Z,6.48
2023-03-16T19:15:26.568Z,6.48
2023-03-16T19:18:12.468Z,6.44
2023-03-16T19:20:58.871Z,6.44
2023-03-16T19:23:45.452Z,6.31
2023-03-16T19:26:32.995Z,6.29
2023-03-16T19:29:19.764Z,6.27
2023-03-16T19:32:05.733Z,6.28
2023-03-16T19:34:51.943Z,6.24
2023-03-16T19:37:37.839Z,6.23
2023-03-16T19:40:25.044Z,6.19
2023-03-16T19:43:16.976Z,6.17
2023-03-16T19:46:03.109Z,6.19
2023-03-16T19:48:49.447Z,6.17
2023-03-16T19:51:35.143Z,6.16
2023-03-16T19:54:22.262Z,6.14
2023-03-16T19:57:11.090Z,6.12
2023-03-16T19:59:58.419Z,6.17
2023-03-16T20:02:44.206Z,6.15
2023-03-16T20:05:31.744Z,6.13
2023-03-16T20:08:20.476Z,6.12
2023-03-16T20:11:07.292Z,6.15
2023-03-16T20:13:53.136Z,6.16
2023-03-16T20:16:40.770Z,6.16
2023-03-16T20:19:26.459Z,6.13
2023-03-16T20:22:12.928Z,6.16
2023-03-16T20:25:01.262Z,6.13
2023-03-16T20:27:47.571Z,6.16
2023-03-16T20:30:34.341Z,6.17
2023-03-16T20:33:23.786Z,6.19
2023-03-16T20:36:10.905Z,6.19
2023-03-16T20:38:56.843Z,6.20
2023-03-16T20:41:42.849Z,6.21
2023-03-16T20:44:30.157Z,6.26
2023-03-16T20:47:16.340Z,6.22
2023-03-16T20:50:04.518Z,6.23
2023-03-16T20:52:51.536Z,6.21
2023-03-16T20:55:37.546Z,6.26
2023-03-16T20:58:24.404Z,6.27
2023-03-16T21:01:17.379Z,6.28
2023-03-16T21:04:03.472Z,6.25
2023-03-16T21:06:51.068Z,6.23
2023-03-16T21:09:37.215Z,6.27
2023-03-16T21:12:24.223Z,6.29
2023-03-16T21:15:16.092Z,6.28
2023-03-16T21:18:02.937Z,6.29
2023-03-16T21:20:49.843Z,6.30
2023-03-16T21:23:37.600Z,6.31
2023-03-16T21:26:23.989Z,6.30
2023-03-16T21:29:15.810Z,6.26
2023-03-16T21:32:14.783Z,6.24
2023-03-16T21:35:04.184Z,6.27
2023-03-16T21:37:52.567Z,6.21
2023-03-16T21:40:46.084Z,6.20
2023-03-16T21:43:42.839Z,6.17
2023-03-16T21:46:28.689Z,6.19
2023-03-16T21:49:20.580Z,6.15
2023-03-16T21:52:30.935Z,6.23
2023-03-16T21:55:25.919Z,6.24
2023-03-16T21:58:18.600Z,6.23
2023-03-16T22:01:06.087Z,6.21
2023-03-16T22:03:53.818Z,6.19
2023-03-16T22:06:39.933Z,6.16
2023-03-16T22:09:29.862Z,6.22
2023-03-16T22:12:16.738Z,6.28
2023-03-16T22:15:03.974Z,6.32
2023-03-16T22:17:50.067Z,6.30
2023-03-16T22:20:36.491Z,6.34
2023-03-16T22:23:40.884Z,6.26
2023-03-16T22:26:27.694Z,6.24
2023-03-16T22:29:18.207Z,6.14
2023-03-16T22:32:06.146Z,5.98
2023-03-16T22:34:52.392Z,5.83
2023-03-16T22:37:38.641Z,5.82
2023-03-16T22:40:24.925Z,5.76
2023-03-16T22:43:12.259Z,5.68
2023-03-16T22:45:59.147Z,5.59
2023-03-16T22:48:46.669Z,5.56
2023-03-16T22:51:33.417Z,5.52
2023-03-16T22:54:19.793Z,5.46
2023-03-16T22:57:06.253Z,5.45
2023-03-16T22:59:52.311Z,5.40
2023-03-16T23:02:38.620Z,5.36
2023-03-16T23:05:26.823Z,5.32
2023-03-16T23:08:14.377Z,5.31
2023-03-16T23:11:00.451Z,5.35
2023-03-16T23:13:46.423Z,5.32
2023-03-16T23:16:34.483Z,5.33
2023-03-16T23:19:25.221Z,5.40
2023-03-16T23:22:13.273Z,5.42
2023-03-16T23:24:59.191Z,5.47
2023-03-16T23:27:44.960Z,5.42
2023-03-16T23:30:31.419Z,5.39
2023-03-16T23:33:17.862Z,5.37
2023-03-16T23:36:04.072Z,5.31
2023-03-16T23:38:51.749Z,5.29
2023-03-16T23:41:37.775Z,5.27
2023-03-16T23:44:24.430Z,5.24
2023-03-16T23:47:10.795Z,5.15
2023-03-16T23:49:56.841Z,5.12
2023-03-16T23:52:42.639Z,5.08
2023-03-16T23:55:29.914Z,5.02
2023-03-16T23:58:16.346Z,4.97
